Amarillo, TX (79111)

1:14 PM CST on March 02, 2015 (GMT -0600)
Amarillo International | Change Station
CLOSE
Current Station
Airport
Location: Amarillo,
Elevation: 3606 ft
Nearby Weather Stations

Elev 3606 ft 35.22 °N, 101.72 °W | Updated 21 minutes ago

Overcast
Overcast
31 °F
Feels Like 20 °F
N
15
Wind Variable Wind from South

Today
High -- | Low -- °F
--% Chance of Precip.
Yesterday
High -- | Low -- °F
Precip. -- in
7:15 AM 6:43 PM
Waxing Gibbous, 92% visible
Pressure 30.23 in
Visibility 8.0 miles
Clouds Overcast 800 ft
Windchill 20 °F
Dew Point 27 °F
Humidity 85%
Rainfall 0.00 in
Snow Depth Not available.
UV 2 out of 12
Pollen 5.00 out of 12
Air Quality Not available.
Flu Activity Not available.
METAR KAMA 021853Z 18013KT 8SM OVC008 M01/M03 A3018 RMK AO2 CIG 007V012 PRESFR SLP235 I1000 T10061028

More Conditions Fewer Conditions

Pressure 30.23 in
Visibility 8.0 miles
Clouds Overcast 800 ft
Windchill 20 °F
Dew Point 27 °F
Humidity 85%
Rainfall 0.00 in
Snow Depth Not available.
UV 2 out of 12
Pollen 5.00 out of 12
Air Quality Not available.
Flu Activity Not available.
METAR KAMA 021853Z 18013KT 8SM OVC008 M01/M03 A3018 RMK AO2 CIG 007V012 PRESFR SLP235 I1000 T10061028

More Conditions Fewer Conditions

10-Day Weather Forecast

Almanac

Astronomy

Mar. 02, 2015 Rise Set
Actual Time
Civil Twilight
Nautical Twilight
Astronomical Twilight
Moon
Length of Visible Light
Length of Day
Tomorrow will be .
, % of the Moon is Illuminated

Today's Extremes

State Highs State Lows

Community

WunderPhotos

Upload Photos

1,801,914 photos uploaded!

WunderBlogs® & News

Nearby

Air Quality

  Air Quality AQ Index Pollutant
Not available.

Snow Depth

Station Depth Elevation

Earthquake Activity

City Distance Mag. Time & Date
Minimum magnitude displayed is 2.5.

Coastal Water Temperatures

Place Temperature

Nearby Weather Stations